sensor_id;sensor_type;location;lat;lon;timestamp;temperature;humidity
42187;DHT22;27858;51.414;0.018;2023-08-17T04:01:51;17.80;99.90
42187;DHT22;27858;51.414;0.018;2023-08-17T04:04:18;17.80;99.90
42187;DHT22;27858;51.414;0.018;2023-08-17T04:06:44;17.80;99.90
42187;DHT22;27858;51.414;0.018;2023-08-17T04:09:11;17.80;99.90
42187;DHT22;27858;51.414;0.018;2023-08-17T04:11:39;17.80;99.90
42187;DHT22;27858;51.414;0.018;2023-08-17T04:14:05;17.70;99.90
42187;DHT22;27858;51.414;0.018;2023-08-17T04:16:32;17.70;99.90
42187;DHT22;27858;51.414;0.018;2023-08-17T04:18:59;17.70;99.90
42187;DHT22;27858;51.414;0.018;2023-08-17T04:21:26;17.80;99.90
42187;DHT22;27858;51.414;0.018;2023-08-17T04:23:53;17.80;99.90
42187;DHT22;27858;51.414;0.018;2023-08-17T04:26:20;17.70;99.90
42187;DHT22;27858;51.414;0.018;2023-08-17T04:28:47;17.70;99.90
42187;DHT22;27858;51.414;0.018;2023-08-17T04:31:14;17.70;99.90
42187;DHT22;27858;51.414;0.018;2023-08-17T04:33:40;17.70;99.90
42187;DHT22;27858;51.414;0.018;2023-08-17T04:36:07;17.80;99.90
42187;DHT22;27858;51.414;0.018;2023-08-17T04:38:34;17.80;99.90
42187;DHT22;27858;51.414;0.018;2023-08-17T04:41:01;17.80;99.90
42187;DHT22;27858;51.414;0.018;2023-08-17T04:43:28;17.80;99.90
42187;DHT22;27858;51.414;0.018;2023-08-17T04:45:54;17.90;99.90
42187;DHT22;27858;51.414;0.018;2023-08-17T04:48:21;17.90;99.90
42187;DHT22;27858;51.414;0.018;2023-08-17T04:50:49;17.90;99.90
42187;DHT22;27858;51.414;0.018;2023-08-17T04:53:15;17.80;99.90
42187;DHT22;27858;51.414;0.018;2023-08-17T04:55:42;17.90;99.90
42187;DHT22;27858;51.414;0.018;2023-08-17T04:58:09;17.90;99.90
42187;DHT22;27858;51.414;0.018;2023-08-17T05:00:37;18.00;99.90
42187;DHT22;27858;51.414;0.018;2023-08-17T05:03:04;18.00;99.90
42187;DHT22;27858;51.414;0.018;2023-08-17T05:05:35;17.90;99.90
42187;DHT22;27858;51.414;0.018;2023-08-17T05:08:02;17.90;99.90
42187;DHT22;27858;51.414;0.018;2023-08-17T05:10:29;17.90;99.90
42187;DHT22;27858;51.414;0.018;2023-08-17T05:12:55;17.90;99.90
42187;DHT22;27858;51.414;0.018;2023-08-17T05:15:22;17.90;99.90
42187;DHT22;27858;51.414;0.018;2023-08-17T05:17:49;17.90;99.90
42187;DHT22;27858;51.414;0.018;2023-08-17T05:20:16;17.90;99.90
42187;DHT22;27858;51.414;0.018;2023-08-17T05:22:42;17.90;99.90
42187;DHT22;27858;51.414;0.018;2023-08-17T05:25:09;17.90;99.90
42187;DHT22;27858;51.414;0.018;2023-08-17T05:27:36;17.90;99.90
42187;DHT22;27858;51.414;0.018;2023-08-17T05:30:03;18.00;99.90
42187;DHT22;27858;51.414;0.018;2023-08-17T05:32:30;18.00;99.90
42187;DHT22;27858;51.414;0.018;2023-08-17T05:34:57;18.00;99.90
42187;DHT22;27858;51.414;0.018;2023-08-17T05:37:24;18.00;99.90
42187;DHT22;27858;51.414;0.018;2023-08-17T05:39:51;18.00;99.90
42187;DHT22;27858;51.414;0.018;2023-08-17T05:42:17;18.00;99.90
42187;DHT22;27858;51.414;0.018;2023-08-17T05:44:44;18.00;99.90
42187;DHT22;27858;51.414;0.018;2023-08-17T05:47:11;18.10;99.90
42187;DHT22;27858;51.414;0.018;2023-08-17T05:49:41;18.10;99.90
42187;DHT22;27858;51.414;0.018;2023-08-17T05:52:08;18.10;99.90
42187;DHT22;27858;51.414;0.018;2023-08-17T05:54:35;18.10;99.90
42187;DHT22;27858;51.414;0.018;2023-08-17T05:57:02;18.10;99.90
42187;DHT22;27858;51.414;0.018;2023-08-17T05:59:29;18.10;99.90
42187;DHT22;27858;51.414;0.018;2023-08-17T06:01:56;18.10;99.90
42187;DHT22;27858;51.414;0.018;2023-08-17T06:04:23;18.20;99.90
42187;DHT22;27858;51.414;0.018;2023-08-17T06:06:50;18.20;99.90
42187;DHT22;27858;51.414;0.018;2023-08-17T06:09:16;18.20;99.90
42187;DHT22;27858;51.414;0.018;2023-08-17T06:11:43;18.20;99.90
42187;DHT22;27858;51.414;0.018;2023-08-17T06:14:10;18.20;99.90
42187;DHT22;27858;51.414;0.018;2023-08-17T06:16:36;18.20;99.90
42187;DHT22;27858;51.414;0.018;2023-08-17T06:19:03;18.20;99.90
42187;DHT22;27858;51.414;0.018;2023-08-17T06:21:30;18.30;99.90
42187;DHT22;27858;51.414;0.018;2023-08-17T06:23:57;18.20;99.90
42187;DHT22;27858;51.414;0.018;2023-08-17T06:26:24;18.30;99.90
42187;DHT22;27858;51.414;0.018;2023-08-17T06:28:51;18.30;99.90
42187;DHT22;27858;51.414;0.018;2023-08-17T06:31:17;18.30;99.90
42187;DHT22;27858;51.414;0.018;2023-08-17T06:33:44;18.40;99.90
42187;DHT22;27858;51.414;0.018;2023-08-17T06:36:11;18.50;99.90
42187;DHT22;27858;51.414;0.018;2023-08-17T06:38:42;18.50;99.90
42187;DHT22;27858;51.414;0.018;2023-08-17T06:41:09;18.50;99.90
42187;DHT22;27858;51.414;0.018;2023-08-17T06:43:36;18.50;99.90
42187;DHT22;27858;51.414;0.018;2023-08-17T06:46:03;18.60;99.90
42187;DHT22;27858;51.414;0.018;2023-08-17T06:48:30;18.70;99.90
42187;DHT22;27858;51.414;0.018;2023-08-17T06:50:58;18.70;99.90
42187;DHT22;27858;51.414;0.018;2023-08-17T06:53:24;18.70;99.90
42187;DHT22;27858;51.414;0.018;2023-08-17T06:55:51;18.80;99.90
42187;DHT22;27858;51.414;0.018;2023-08-17T06:58:18;18.80;99.90
42187;DHT22;27858;51.414;0.018;2023-08-17T07:00:45;18.90;99.90
42187;DHT22;27858;51.414;0.018;2023-08-17T07:03:12;19.00;99.90
42187;DHT22;27858;51.414;0.018;2023-08-17T07:05:38;19.00;99.90
42187;DHT22;27858;51.414;0.018;2023-08-17T07:08:05;19.10;99.90
42187;DHT22;27858;51.414;0.018;2023-08-17T07:10:33;19.20;99.90
42187;DHT22;27858;51.414;0.018;2023-08-17T07:13:00;19.20;99.90
42187;DHT22;27858;51.414;0.018;2023-08-17T07:15:32;19.30;99.90
42187;DHT22;27858;51.414;0.018;2023-08-17T07:17:59;19.30;99.90
42187;DHT22;27858;51.414;0.018;2023-08-17T07:20:26;19.40;99.90
42187;DHT22;27858;51.414;0.018;2023-08-17T07:22:53;19.40;99.90
42187;DHT22;27858;51.414;0.018;2023-08-17T07:25:20;19.50;99.90
42187;DHT22;27858;51.414;0.018;2023-08-17T07:27:47;19.60;99.90
42187;DHT22;27858;51.414;0.018;2023-08-17T07:30:13;19.60;99.90
42187;DHT22;27858;51.414;0.018;2023-08-17T07:32:40;19.60;99.90
42187;DHT22;27858;51.414;0.018;2023-08-17T07:35:07;19.60;99.90
42187;DHT22;27858;51.414;0.018;2023-08-17T07:37:35;19.70;99.90
42187;DHT22;27858;51.414;0.018;2023-08-17T07:40:02;19.80;99.90
42187;DHT22;27858;51.414;0.018;2023-08-17T07:42:30;19.80;99.90
42187;DHT22;27858;51.414;0.018;2023-08-17T07:44:57;19.80;99.90
42187;DHT22;27858;51.414;0.018;2023-08-17T07:47:25;20.00;99.90
42187;DHT22;27858;51.414;0.018;2023-08-17T07:49:53;20.00;99.90
42187;DHT22;27858;51.414;0.018;2023-08-17T07:52:20;20.10;99.90
42187;DHT22;27858;51.414;0.018;2023-08-17T07:54:46;20.20;99.90
42187;DHT22;27858;51.414;0.018;2023-08-17T07:57:13;20.20;99.90
42187;DHT22;27858;51.414;0.018;2023-08-17T07:59:40;20.40;99.90
42187;DHT22;27858;51.414;0.018;2023-08-17T08:02:07;20.40;99.90
42187;DHT22;27858;51.414;0.018;2023-08-17T08:04:33;20.50;99.90
42187;DHT22;27858;51.414;0.018;2023-08-17T08:07:00;20.60;99.90
42187;DHT22;27858;51.414;0.018;2023-08-17T08:09:27;20.60;99.90
42187;DHT22;27858;51.414;0.018;2023-08-17T08:11:54;20.60;99.90
42187;DHT22;27858;51.414;0.018;2023-08-17T08:14:20;20.60;99.90
42187;DHT22;27858;51.414;0.018;2023-08-17T08:16:47;20.70;99.90
42187;DHT22;27858;51.414;0.018;2023-08-17T08:19:14;20.70;99.90
42187;DHT22;27858;51.414;0.018;2023-08-17T08:21:41;20.70;99.90
42187;DHT22;27858;51.414;0.018;2023-08-17T08:24:08;20.80;99.90
42187;DHT22;27858;51.414;0.018;2023-08-17T08:26:43;20.80;99.90
42187;DHT22;27858;51.414;0.018;2023-08-17T08:29:10;20.80;99.90
42187;DHT22;27858;51.414;0.018;2023-08-17T08:31:37;20.80;99.90
42187;DHT22;27858;51.414;0.018;2023-08-17T08:34:04;21.00;99.90
42187;DHT22;27858;51.414;0.018;2023-08-17T08:36:31;21.00;99.90
42187;DHT22;27858;51.414;0.018;2023-08-17T08:38:58;20.90;99.90
42187;DHT22;27858;51.414;0.018;2023-08-17T08:41:26;21.00;99.90
42187;DHT22;27858;51.414;0.018;2023-08-17T08:43:53;21.00;99.90
42187;DHT22;27858;51.414;0.018;2023-08-17T08:46:21;21.00;99.90
42187;DHT22;27858;51.414;0.018;2023-08-17T08:48:50;21.10;99.90
42187;DHT22;27858;51.414;0.018;2023-08-17T08:51:25;21.10;99.90
42187;DHT22;27858;51.414;0.018;2023-08-17T08:54:01;21.30;99.90
42187;DHT22;27858;51.414;0.018;2023-08-17T08:56:33;21.30;99.90
42187;DHT22;27858;51.414;0.018;2023-08-17T08:59:02;21.30;99.90
42187;DHT22;27858;51.414;0.018;2023-08-17T09:01:34;21.50;99.90
42187;DHT22;27858;51.414;0.018;2023-08-17T09:04:07;21.60;99.90
42187;DHT22;27858;51.414;0.018;2023-08-17T09:06:34;21.70;99.90
42187;DHT22;27858;51.414;0.018;2023-08-17T09:09:02;21.80;99.90
42187;DHT22;27858;51.414;0.018;2023-08-17T09:11:29;21.80;99.90
42187;DHT22;27858;51.414;0.018;2023-08-17T09:13:56;21.90;99.90
42187;DHT22;27858;51.414;0.018;2023-08-17T09:16:23;21.90;99.90
42187;DHT22;27858;51.414;0.018;2023-08-17T09:18:53;21.80;99.90
42187;DHT22;27858;51.414;0.018;2023-08-17T09:21:21;21.90;99.90
42187;DHT22;27858;51.414;0.018;2023-08-17T09:23:56;22.00;99.90
42187;DHT22;27858;51.414;0.018;2023-08-17T09:26:29;22.00;99.90
42187;DHT22;27858;51.414;0.018;2023-08-17T09:28:56;22.10;99.90
42187;DHT22;27858;51.414;0.018;2023-08-17T09:31:25;22.20;99.90
42187;DHT22;27858;51.414;0.018;2023-08-17T09:33:52;22.20;99.90
42187;DHT22;27858;51.414;0.018;2023-08-17T09:36:21;22.20;99.90
42187;DHT22;27858;51.414;0.018;2023-08-17T09:38:50;22.20;99.90
42187;DHT22;27858;51.414;0.018;2023-08-17T09:41:18;22.30;99.90
42187;DHT22;27858;51.414;0.018;2023-08-17T09:43:48;22.40;99.90
42187;DHT22;27858;51.414;0.018;2023-08-17T09:46:15;22.30;99.90
42187;DHT22;27858;51.414;0.018;2023-08-17T09:48:45;22.30;99.90
42187;DHT22;27858;51.414;0.018;2023-08-17T09:51:17;22.20;99.90
42187;DHT22;27858;51.414;0.018;2023-08-17T09:53:44;22.20;99.90
42187;DHT22;27858;51.414;0.018;2023-08-17T09:56:12;22.30;99.90
42187;DHT22;27858;51.414;0.018;2023-08-17T09:58:42;22.30;99.90
42187;DHT22;27858;51.414;0.018;2023-08-17T10:01:09;22.20;99.90
42187;DHT22;27858;51.414;0.018;2023-08-17T10:03:39;22.10;99.90
42187;DHT22;27858;51.414;0.018;2023-08-17T10:06:06;22.10;99.90
42187;DHT22;27858;51.414;0.018;2023-08-17T10:08:42;22.10;99.90
42187;DHT22;27858;51.414;0.018;2023-08-17T10:11:10;22.00;99.90
42187;DHT22;27858;51.414;0.018;2023-08-17T10:13:51;21.90;99.90
42187;DHT22;27858;51.414;0.018;2023-08-17T10:16:33;21.90;99.90
42187;DHT22;27858;51.414;0.018;2023-08-17T10:21:50;22.10;99.90
42187;DHT22;27858;51.414;0.018;2023-08-17T10:24:19;22.20;99.90
42187;DHT22;27858;51.414;0.018;2023-08-17T10:26:46;22.30;99.90
42187;DHT22;27858;51.414;0.018;2023-08-17T10:29:14;22.20;99.90
42187;DHT22;27858;51.414;0.018;2023-08-17T10:31:46;22.30;99.90
42187;DHT22;27858;51.414;0.018;2023-08-17T10:34:14;22.40;99.90
42187;DHT22;27858;51.414;0.018;2023-08-17T10:36:42;22.40;99.90
42187;DHT22;27858;51.414;0.018;2023-08-17T10:39:20;22.40;99.90
42187;DHT22;27858;51.414;0.018;2023-08-17T10:41:53;22.20;99.90
42187;DHT22;27858;51.414;0.018;2023-08-17T10:44:38;22.30;99.90
42187;DHT22;27858;51.414;0.018;2023-08-17T10:49:51;22.70;99.90
42187;DHT22;27858;51.414;0.018;2023-08-17T10:52:32;22.80;99.90
42187;DHT22;27858;51.414;0.018;2023-08-17T10:55:08;22.80;99.90
42187;DHT22;27858;51.414;0.018;2023-08-17T11:00:25;22.80;99.90
42187;DHT22;27858;51.414;0.018;2023-08-17T11:05:41;22.70;99.90
42187;DHT22;27858;51.414;0.018;2023-08-17T11:08:10;22.70;99.90
42187;DHT22;27858;51.414;0.018;2023-08-17T11:10:37;22.90;99.90
42187;DHT22;27858;51.414;0.018;2023-08-17T11:13:05;23.10;99.90
42187;DHT22;27858;51.414;0.018;2023-08-17T11:15:41;22.90;99.90
42187;DHT22;27858;51.414;0.018;2023-08-17T11:18:12;22.80;99.90
42187;DHT22;27858;51.414;0.018;2023-08-17T11:20:40;22.90;99.90
42187;DHT22;27858;51.414;0.018;2023-08-17T11:23:09;23.00;99.90
42187;DHT22;27858;51.414;0.018;2023-08-17T11:25:37;23.10;99.90
42187;DHT22;27858;51.414;0.018;2023-08-17T11:28:06;23.20;99.90
42187;DHT22;27858;51.414;0.018;2023-08-17T11:30:33;23.20;99.90
42187;DHT22;27858;51.414;0.018;2023-08-17T11:33:02;23.40;99.90
42187;DHT22;27858;51.414;0.018;2023-08-17T11:35:29;23.40;99.90
42187;DHT22;27858;51.414;0.018;2023-08-17T11:37:56;23.50;98.40
42187;DHT22;27858;51.414;0.018;2023-08-17T11:40:24;23.50;98.80
42187;DHT22;27858;51.414;0.018;2023-08-17T11:42:53;23.40;93.50
42187;DHT22;27858;51.414;0.018;2023-08-17T11:45:20;23.30;92.80
42187;DHT22;27858;51.414;0.018;2023-08-17T11:47:53;23.40;97.00
42187;DHT22;27858;51.414;0.018;2023-08-17T11:50:20;23.40;93.90
42187;DHT22;27858;51.414;0.018;2023-08-17T11:52:47;23.40;93.90
42187;DHT22;27858;51.414;0.018;2023-08-17T11:55:16;23.50;92.00
42187;DHT22;27858;51.414;0.018;2023-08-17T11:57:47;23.80;88.60
42187;DHT22;27858;51.414;0.018;2023-08-17T12:00:21;24.00;73.60
42187;DHT22;27858;51.414;0.018;2023-08-17T12:02:49;24.00;62.00
42187;DHT22;27858;51.414;0.018;2023-08-17T12:05:23;24.10;61.80
42187;DHT22;27858;51.414;0.018;2023-08-17T12:07:50;24.00;56.80
42187;DHT22;27858;51.414;0.018;2023-08-17T12:10:19;23.90;53.80
42187;DHT22;27858;51.414;0.018;2023-08-17T12:12:49;23.90;50.80
42187;DHT22;27858;51.414;0.018;2023-08-17T12:15:17;24.00;54.20
42187;DHT22;27858;51.414;0.018;2023-08-17T12:17:48;24.20;56.60
42187;DHT22;27858;51.414;0.018;2023-08-17T12:20:19;24.30;42.20
42187;DHT22;27858;51.414;0.018;2023-08-17T12:22:47;24.30;35.00
42187;DHT22;27858;51.414;0.018;2023-08-17T12:25:15;24.40;36.40
42187;DHT22;27858;51.414;0.018;2023-08-17T12:27:42;24.40;32.20
42187;DHT22;27858;51.414;0.018;2023-08-17T12:30:28;24.40;25.60
42187;DHT22;27858;51.414;0.018;2023-08-17T12:32:55;24.20;25.10
42187;DHT22;27858;51.414;0.018;2023-08-17T12:35:25;24.10;21.80
42187;DHT22;27858;51.414;0.018;2023-08-17T12:37:53;23.90;32.10
42187;DHT22;27858;51.414;0.018;2023-08-17T12:40:21;23.90;37.00
42187;DHT22;27858;51.414;0.018;2023-08-17T12:42:48;23.80;40.80
42187;DHT22;27858;51.414;0.018;2023-08-17T12:45:16;23.60;39.90
42187;DHT22;27858;51.414;0.018;2023-08-17T12:47:42;23.50;46.50
42187;DHT22;27858;51.414;0.018;2023-08-17T12:50:09;23.60;42.50
42187;DHT22;27858;51.414;0.018;2023-08-17T12:52:36;23.70;39.60
42187;DHT22;27858;51.414;0.018;2023-08-17T12:55:03;24.00;35.20
42187;DHT22;27858;51.414;0.018;2023-08-17T12:57:31;23.90;25.70
42187;DHT22;27858;51.414;0.018;2023-08-17T12:59:57;23.90;12.50
42187;DHT22;27858;51.414;0.018;2023-08-17T13:02:24;24.00;8.80
42187;DHT22;27858;51.414;0.018;2023-08-17T13:04:51;24.10;19.70
42187;DHT22;27858;51.414;0.018;2023-08-17T13:07:18;24.10;14.30
42187;DHT22;27858;51.414;0.018;2023-08-17T13:09:45;24.30;13.20
42187;DHT22;27858;51.414;0.018;2023-08-17T13:12:13;24.40;9.70
42187;DHT22;27858;51.414;0.018;2023-08-17T13:14:40;24.50;1.00
42187;DHT22;27858;51.414;0.018;2023-08-17T13:17:07;24.60;1.00
42187;DHT22;27858;51.414;0.018;2023-08-17T13:19:34;24.70;1.20
42187;DHT22;27858;51.414;0.018;2023-08-17T13:22:01;24.90;1.00
42187;DHT22;27858;51.414;0.018;2023-08-17T13:24:29;25.00;2.60
42187;DHT22;27858;51.414;0.018;2023-08-17T13:26:56;25.20;1.00
42187;DHT22;27858;51.414;0.018;2023-08-17T13:29:24;25.40;1.00
42187;DHT22;27858;51.414;0.018;2023-08-17T13:31:51;25.70;1.00
42187;DHT22;27858;51.414;0.018;2023-08-17T13:34:18;25.90;1.00
42187;DHT22;27858;51.414;0.018;2023-08-17T13:36:44;26.10;1.00
42187;DHT22;27858;51.414;0.018;2023-08-17T13:39:11;26.00;1.00
42187;DHT22;27858;51.414;0.018;2023-08-17T13:41:38;26.40;1.00
42187;DHT22;27858;51.414;0.018;2023-08-17T13:44:07;26.40;1.00
42187;DHT22;27858;51.414;0.018;2023-08-17T13:46:33;26.70;1.00
42187;DHT22;27858;51.414;0.018;2023-08-17T13:49:00;26.70;1.00
42187;DHT22;27858;51.414;0.018;2023-08-17T13:51:27;26.80;1.00
42187;DHT22;27858;51.414;0.018;2023-08-17T13:53:54;26.80;1.00
42187;DHT22;27858;51.414;0.018;2023-08-17T13:56:21;26.80;1.00
42187;DHT22;27858;51.414;0.018;2023-08-17T13:58:47;27.10;1.00
42187;DHT22;27858;51.414;0.018;2023-08-17T14:01:14;27.20;1.00
42187;DHT22;27858;51.414;0.018;2023-08-17T14:03:41;27.40;1.00
42187;DHT22;27858;51.414;0.018;2023-08-17T14:06:09;27.50;1.00
42187;DHT22;27858;51.414;0.018;2023-08-17T14:08:36;27.40;99.90
42187;DHT22;27858;51.414;0.018;2023-08-17T14:11:03;27.70;99.90
42187;DHT22;27858;51.414;0.018;2023-08-17T14:13:30;27.50;99.90
42187;DHT22;27858;51.414;0.018;2023-08-17T14:15:56;27.70;99.90
42187;DHT22;27858;51.414;0.018;2023-08-17T14:18:25;27.80;99.90
42187;DHT22;27858;51.414;0.018;2023-08-17T14:20:52;27.90;99.90
42187;DHT22;27858;51.414;0.018;2023-08-17T14:23:19;28.10;99.90
42187;DHT22;27858;51.414;0.018;2023-08-17T14:25:45;28.10;99.90
42187;DHT22;27858;51.414;0.018;2023-08-17T14:28:12;28.20;99.90
42187;DHT22;27858;51.414;0.018;2023-08-17T14:30:39;28.40;99.90
42187;DHT22;27858;51.414;0.018;2023-08-17T14:33:06;28.20;99.90
42187;DHT22;27858;51.414;0.018;2023-08-17T14:35:33;28.40;99.90
42187;DHT22;27858;51.414;0.018;2023-08-17T14:38:00;28.50;99.90
42187;DHT22;27858;51.414;0.018;2023-08-17T14:40:28;28.70;99.90
42187;DHT22;27858;51.414;0.018;2023-08-17T14:42:55;28.70;99.90
42187;DHT22;27858;51.414;0.018;2023-08-17T14:45:22;28.70;99.90
42187;DHT22;27858;51.414;0.018;2023-08-17T14:47:48;28.70;99.90
42187;DHT22;27858;51.414;0.018;2023-08-17T14:50:15;28.80;99.90
42187;DHT22;27858;51.414;0.018;2023-08-17T14:52:42;28.80;99.90
42187;DHT22;27858;51.414;0.018;2023-08-17T14:55:09;29.00;99.90
42187;DHT22;27858;51.414;0.018;2023-08-17T14:57:36;29.00;99.90
42187;DHT22;27858;51.414;0.018;2023-08-17T15:00:03;29.10;99.90
42187;DHT22;27858;51.414;0.018;2023-08-17T15:02:30;29.20;99.90
42187;DHT22;27858;51.414;0.018;2023-08-17T15:04:57;29.50;99.90
42187;DHT22;27858;51.414;0.018;2023-08-17T15:07:24;29.60;99.90
42187;DHT22;27858;51.414;0.018;2023-08-17T15:09:52;29.30;99.90
42187;DHT22;27858;51.414;0.018;2023-08-17T15:12:19;29.40;99.90
42187;DHT22;27858;51.414;0.018;2023-08-17T15:14:49;29.50;99.90
42187;DHT22;27858;51.414;0.018;2023-08-17T15:17:16;29.60;99.90
42187;DHT22;27858;51.414;0.018;2023-08-17T15:19:43;29.80;99.90
42187;DHT22;27858;51.414;0.018;2023-08-17T15:22:10;29.20;99.90
42187;DHT22;27858;51.414;0.018;2023-08-17T15:24:40;28.80;99.90
42187;DHT22;27858;51.414;0.018;2023-08-17T15:27:10;29.00;99.90
42187;DHT22;27858;51.414;0.018;2023-08-17T15:29:36;29.10;99.90
42187;DHT22;27858;51.414;0.018;2023-08-17T15:32:03;29.40;99.90
42187;DHT22;27858;51.414;0.018;2023-08-17T15:34:30;29.70;99.90
42187;DHT22;27858;51.414;0.018;2023-08-17T15:36:57;29.80;99.90
42187;DHT22;27858;51.414;0.018;2023-08-17T15:39:24;29.90;99.90
42187;DHT22;27858;51.414;0.018;2023-08-17T15:41:52;29.90;99.90
42187;DHT22;27858;51.414;0.018;2023-08-17T15:44:18;30.30;99.90
42187;DHT22;27858;51.414;0.018;2023-08-17T15:46:45;30.10;99.90
42187;DHT22;27858;51.414;0.018;2023-08-17T15:49:12;30.30;99.90
42187;DHT22;27858;51.414;0.018;2023-08-17T15:51:39;30.30;99.90
42187;DHT22;27858;51.414;0.018;2023-08-17T15:54:07;30.40;99.90
42187;DHT22;27858;51.414;0.018;2023-08-17T15:56:35;30.60;99.90
42187;DHT22;27858;51.414;0.018;2023-08-17T15:59:02;30.40;99.90
42187;DHT22;27858;51.414;0.018;2023-08-17T16:01:29;30.40;99.90
42187;DHT22;27858;51.414;0.018;2023-08-17T16:03:56;31.10;99.90
42187;DHT22;27858;51.414;0.018;2023-08-17T16:06:23;31.10;99.90
42187;DHT22;27858;51.414;0.018;2023-08-17T16:08:50;30.90;99.90
42187;DHT22;27858;51.414;0.018;2023-08-17T16:11:18;31.20;99.90
42187;DHT22;27858;51.414;0.018;2023-08-17T16:13:45;31.40;99.90
42187;DHT22;27858;51.414;0.018;2023-08-17T16:16:12;31.40;99.90
42187;DHT22;27858;51.414;0.018;2023-08-17T16:18:40;31.00;99.90
42187;DHT22;27858;51.414;0.018;2023-08-17T16:21:06;30.20;99.90
42187;DHT22;27858;51.414;0.018;2023-08-17T16:23:40;30.40;99.90
42187;DHT22;27858;51.414;0.018;2023-08-17T16:26:09;30.60;99.90
42187;DHT22;27858;51.414;0.018;2023-08-17T16:28:36;30.50;99.90
42187;DHT22;27858;51.414;0.018;2023-08-17T16:31:03;30.60;99.90
42187;DHT22;27858;51.414;0.018;2023-08-17T16:33:31;31.00;99.90
42187;DHT22;27858;51.414;0.018;2023-08-17T16:35:58;30.80;99.90
42187;DHT22;27858;51.414;0.018;2023-08-17T16:38:25;30.00;99.90
42187;DHT22;27858;51.414;0.018;2023-08-17T16:40:52;29.50;99.90
42187;DHT22;27858;51.414;0.018;2023-08-17T16:43:19;28.80;99.90
42187;DHT22;27858;51.414;0.018;2023-08-17T16:45:48;28.30;99.90
42187;DHT22;27858;51.414;0.018;2023-08-17T16:48:15;28.00;99.90
42187;DHT22;27858;51.414;0.018;2023-08-17T16:50:42;27.70;99.90
42187;DHT22;27858;51.414;0.018;2023-08-17T16:53:09;27.40;99.90
42187;DHT22;27858;51.414;0.018;2023-08-17T16:55:36;27.10;99.90
42187;DHT22;27858;51.414;0.018;2023-08-17T16:58:03;26.60;99.90
42187;DHT22;27858;51.414;0.018;2023-08-17T17:00:30;26.50;99.90
42187;DHT22;27858;51.414;0.018;2023-08-17T17:02:57;27.20;99.90
42187;DHT22;27858;51.414;0.018;2023-08-17T17:05:23;27.10;99.90
42187;DHT22;27858;51.414;0.018;2023-08-17T17:07:50;27.10;99.90
42187;DHT22;27858;51.414;0.018;2023-08-17T17:10:17;27.40;99.90
42187;DHT22;27858;51.414;0.018;2023-08-17T17:12:46;28.00;99.90
42187;DHT22;27858;51.414;0.018;2023-08-17T17:15:13;28.60;99.90
42187;DHT22;27858;51.414;0.018;2023-08-17T17:17:40;28.70;99.90
42187;DHT22;27858;51.414;0.018;2023-08-17T17:20:07;29.00;99.90
42187;DHT22;27858;51.414;0.018;2023-08-17T17:22:34;28.90;99.90
42187;DHT22;27858;51.414;0.018;2023-08-17T17:25:02;29.20;99.90
42187;DHT22;27858;51.414;0.018;2023-08-17T17:27:31;29.30;99.90
42187;DHT22;27858;51.414;0.018;2023-08-17T17:29:58;28.40;99.90
42187;DHT22;27858;51.414;0.018;2023-08-17T17:32:25;27.70;99.90
42187;DHT22;27858;51.414;0.018;2023-08-17T17:34:52;27.70;99.90
42187;DHT22;27858;51.414;0.018;2023-08-17T17:37:19;27.90;99.90
42187;DHT22;27858;51.414;0.018;2023-08-17T17:39:46;27.50;99.90
42187;DHT22;27858;51.414;0.018;2023-08-17T17:42:13;27.00;99.90
42187;DHT22;27858;51.414;0.018;2023-08-17T17:44:41;26.70;99.90
42187;DHT22;27858;51.414;0.018;2023-08-17T17:47:07;26.40;99.90
42187;DHT22;27858;51.414;0.018;2023-08-17T17:49:34;25.70;99.90
42187;DHT22;27858;51.414;0.018;2023-08-17T17:52:01;25.30;99.90
42187;DHT22;27858;51.414;0.018;2023-08-17T17:54:29;25.10;99.90
42187;DHT22;27858;51.414;0.018;2023-08-17T17:56:55;24.80;99.90
42187;DHT22;27858;51.414;0.018;2023-08-17T17:59:23;24.70;99.90
42187;DHT22;27858;51.414;0.018;2023-08-17T18:01:50;24.40;99.90
42187;DHT22;27858;51.414;0.018;2023-08-17T18:04:17;24.30;1.00
42187;DHT22;27858;51.414;0.018;2023-08-17T18:06:44;24.00;1.00
42187;DHT22;27858;51.414;0.018;2023-08-17T18:09:11;23.90;1.00
42187;DHT22;27858;51.414;0.018;2023-08-17T18:11:38;23.70;1.00
42187;DHT22;27858;51.414;0.018;2023-08-17T18:14:06;23.50;1.00
42187;DHT22;27858;51.414;0.018;2023-08-17T18:16:33;23.30;1.00
42187;DHT22;27858;51.414;0.018;2023-08-17T18:19:00;23.20;1.00
42187;DHT22;27858;51.414;0.018;2023-08-17T18:21:27;23.00;1.00
42187;DHT22;27858;51.414;0.018;2023-08-17T18:23:58;23.00;1.00
42187;DHT22;27858;51.414;0.018;2023-08-17T18:26:25;22.90;1.00
42187;DHT22;27858;51.414;0.018;2023-08-17T18:28:53;22.60;4.10
42187;DHT22;27858;51.414;0.018;2023-08-17T18:31:21;22.50;12.70
42187;DHT22;27858;51.414;0.018;2023-08-17T18:33:48;22.50;15.40
42187;DHT22;27858;51.414;0.018;2023-08-17T18:36:15;22.30;26.40
42187;DHT22;27858;51.414;0.018;2023-08-17T18:38:42;22.20;36.20
42187;DHT22;27858;51.414;0.018;2023-08-17T18:41:09;22.10;45.50
42187;DHT22;27858;51.414;0.018;2023-08-17T18:43:37;21.90;57.40
42187;DHT22;27858;51.414;0.018;2023-08-17T18:46:04;21.90;62.10
42187;DHT22;27858;51.414;0.018;2023-08-17T18:48:33;21.70;75.70
42187;DHT22;27858;51.414;0.018;2023-08-17T18:51:00;21.50;88.70
42187;DHT22;27858;51.414;0.018;2023-08-17T18:53:27;21.50;96.80
42187;DHT22;27858;51.414;0.018;2023-08-17T18:55:54;21.40;99.90
42187;DHT22;27858;51.414;0.018;2023-08-17T18:58:21;21.30;99.90
42187;DHT22;27858;51.414;0.018;2023-08-17T19:00:48;21.20;99.90
42187;DHT22;27858;51.414;0.018;2023-08-17T19:03:14;21.10;99.90
42187;DHT22;27858;51.414;0.018;2023-08-17T19:05:41;21.00;99.90
42187;DHT22;27858;51.414;0.018;2023-08-17T19:08:08;21.10;99.90
42187;DHT22;27858;51.414;0.018;2023-08-17T19:10:35;21.00;99.90
42187;DHT22;27858;51.414;0.018;2023-08-17T19:13:02;20.90;99.90
42187;DHT22;27858;51.414;0.018;2023-08-17T19:15:29;20.90;99.90
42187;DHT22;27858;51.414;0.018;2023-08-17T19:17:56;20.90;99.90
42187;DHT22;27858;51.414;0.018;2023-08-17T19:20:23;20.90;99.90
42187;DHT22;27858;51.414;0.018;2023-08-17T19:22:50;20.80;99.90
42187;DHT22;27858;51.414;0.018;2023-08-17T19:25:22;20.80;99.90
42187;DHT22;27858;51.414;0.018;2023-08-17T19:27:49;20.80;99.90
42187;DHT22;27858;51.414;0.018;2023-08-17T19:30:17;20.80;99.90
42187;DHT22;27858;51.414;0.018;2023-08-17T19:32:44;20.70;99.90
42187;DHT22;27858;51.414;0.018;2023-08-17T19:35:12;20.70;99.90
42187;DHT22;27858;51.414;0.018;2023-08-17T19:37:41;20.60;99.90
42187;DHT22;27858;51.414;0.018;2023-08-17T19:40:08;20.70;99.90
42187;DHT22;27858;51.414;0.018;2023-08-17T19:42:36;20.70;99.90
42187;DHT22;27858;51.414;0.018;2023-08-17T19:45:03;20.70;99.90
42187;DHT22;27858;51.414;0.018;2023-08-17T19:47:31;20.70;99.90